createdAt,value
2019-05-05T00:01:19.522Z,4.80
2019-05-05T00:03:56.151Z,4.80
2019-05-05T00:06:25.568Z,4.80
2019-05-05T00:08:55.009Z,4.70
2019-05-05T00:11:49.600Z,4.80
2019-05-05T00:14:26.323Z,4.90
2019-05-05T00:17:00.711Z,5.10
2019-05-05T00:19:33.265Z,5.20
2019-05-05T00:22:01.099Z,5.30
2019-05-05T00:24:30.453Z,5.30
2019-05-05T00:26:59.695Z,5.40
2019-05-05T00:29:28.882Z,5.40
2019-05-05T00:31:58.182Z,5.40
2019-05-05T00:34:46.425Z,5.40
2019-05-05T00:37:18.881Z,5.40
2019-05-05T00:39:48.073Z,5.40
2019-05-05T00:42:17.274Z,5.40
2019-05-05T00:44:46.511Z,5.40
2019-05-05T00:47:30.844Z,5.30
2019-05-05T00:50:00.110Z,5.30
2019-05-05T00:52:29.268Z,5.20
2019-05-05T00:54:58.434Z,5.10
2019-05-05T00:57:27.764Z,5.10
2019-05-05T00:59:56.931Z,5.10
2019-05-05T01:02:34.231Z,5.10
2019-05-05T01:05:21.804Z,5.10
2019-05-05T01:07:51.592Z,5.20
2019-05-05T01:10:20.807Z,5.30
2019-05-05T01:12:50.066Z,5.30
2019-05-05T01:15:19.367Z,5.30
2019-05-05T01:17:48.614Z,5.30
2019-05-05T01:20:18.317Z,5.30
2019-05-05T01:22:47.693Z,5.20
2019-05-05T01:25:17.092Z,5.20
2019-05-05T01:27:46.348Z,5.20
2019-05-05T01:30:19.414Z,5.20
2019-05-05T01:32:51.827Z,5.20
2019-05-05T01:35:21.109Z,5.10
2019-05-05T01:38:01.736Z,5.10
2019-05-05T01:40:39.917Z,5.10
2019-05-05T01:43:09.239Z,5.00
2019-05-05T01:45:38.507Z,5.00
2019-05-05T01:48:07.701Z,4.90
2019-05-05T01:50:37.033Z,4.90
2019-05-05T01:53:06.213Z,4.90
2019-05-05T01:55:35.474Z,4.90
2019-05-05T01:58:05.181Z,4.90
2019-05-05T02:00:42.283Z,4.80
2019-05-05T02:03:11.653Z,4.90
2019-05-05T02:05:40.830Z,4.80
2019-05-05T02:08:29.255Z,4.80
2019-05-05T02:10:58.701Z,4.90
2019-05-05T02:13:27.978Z,4.90
2019-05-05T02:15:57.529Z,4.80
2019-05-05T02:18:26.804Z,4.70
2019-05-05T02:21:05.087Z,4.60
2019-05-05T02:23:36.319Z,4.60
2019-05-05T02:26:07.814Z,4.50
2019-05-05T02:28:50.692Z,4.50
2019-05-05T02:31:55.193Z,4.50
2019-05-05T02:34:25.857Z,4.50
2019-05-05T02:36:56.544Z,4.50
2019-05-05T02:39:25.888Z,4.50
2019-05-05T02:41:56.754Z,4.60
2019-05-05T02:44:28.430Z,4.60
2019-05-05T02:47:16.826Z,4.70
2019-05-05T02:49:46.151Z,4.80
2019-05-05T02:52:16.124Z,4.90
2019-05-05T02:54:46.032Z,5.10
2019-05-05T02:57:16.582Z,5.20
2019-05-05T03:00:10.296Z,5.30
2019-05-05T03:02:39.574Z,5.30
2019-05-05T03:05:09.250Z,5.30
2019-05-05T03:07:39.152Z,5.30
2019-05-05T03:10:08.751Z,5.20
2019-05-05T03:12:41.034Z,5.20
2019-05-05T03:15:14.219Z,5.30
2019-05-05T03:17:44.483Z,5.30
2019-05-05T03:20:14.529Z,5.30
2019-05-05T03:22:44.582Z,5.30
2019-05-05T03:25:13.965Z,5.20
2019-05-05T03:27:44.531Z,5.10
2019-05-05T03:30:15.448Z,5.00
2019-05-05T03:32:45.773Z,4.90
2019-05-05T03:35:15.261Z,4.80
2019-05-05T03:37:44.699Z,4.70
2019-05-05T03:40:20.671Z,4.70
2019-05-05T03:43:14.536Z,4.70
2019-05-05T03:45:49.007Z,4.70
2019-05-05T03:48:18.324Z,4.70
2019-05-05T03:50:47.519Z,4.70
2019-05-05T03:53:17.051Z,4.70
2019-05-05T03:55:46.283Z,4.60
2019-05-05T03:58:15.612Z,4.60
2019-05-05T04:01:31.377Z,4.50
2019-05-05T04:04:18.523Z,4.50
2019-05-05T04:07:07.080Z,4.50
2019-05-05T04:09:36.434Z,4.60
2019-05-05T04:12:05.699Z,4.70
2019-05-05T04:14:35.022Z,4.70
2019-05-05T04:17:14.101Z,4.80
2019-05-05T04:19:46.099Z,4.80
2019-05-05T04:22:15.310Z,4.80
2019-05-05T04:24:44.579Z,4.90
2019-05-05T04:27:14.665Z,5.00
2019-05-05T04:29:44.149Z,5.00
2019-05-05T04:32:14.079Z,5.00
2019-05-05T04:34:44.012Z,5.00
2019-05-05T04:37:14.983Z,5.10
2019-05-05T04:39:44.648Z,5.10
2019-05-05T04:42:14.247Z,5.10
2019-05-05T04:44:45.017Z,5.10
2019-05-05T04:47:20.543Z,5.20
2019-05-05T04:50:12.035Z,5.20
2019-05-05T04:52:43.315Z,5.30
2019-05-05T04:55:13.826Z,5.30
2019-05-05T04:57:43.799Z,5.40
2019-05-05T05:00:13.884Z,5.40
2019-05-05T05:03:12.980Z,5.50
2019-05-05T05:06:10.214Z,5.60
2019-05-05T05:08:44.204Z,5.60
2019-05-05T05:11:14.873Z,5.70
2019-05-05T05:13:44.194Z,5.80
2019-05-05T05:16:13.998Z,6.00
2019-05-05T05:18:44.628Z,6.10
2019-05-05T05:21:14.658Z,6.30
2019-05-05T05:23:44.540Z,6.50
2019-05-05T05:26:14.062Z,6.80
2019-05-05T05:28:44.782Z,7.00
2019-05-05T05:31:14.246Z,7.00
2019-05-05T05:33:43.771Z,7.20
2019-05-05T05:36:14.381Z,7.10
2019-05-05T05:38:45.524Z,7.20
2019-05-05T05:41:17.092Z,7.10
2019-05-05T05:43:59.316Z,7.10
2019-05-05T05:46:45.442Z,7.00
2019-05-05T05:49:24.152Z,7.10
2019-05-05T05:51:53.897Z,7.20
2019-05-05T05:54:23.572Z,7.30
2019-05-05T05:56:53.835Z,7.40
2019-05-05T05:59:24.686Z,7.40
2019-05-05T06:02:08.718Z,7.50
2019-05-05T06:04:24.972Z,7.60
2019-05-05T06:06:54.413Z,7.50
2019-05-05T06:09:23.844Z,7.60
2019-05-05T06:11:54.210Z,7.50
2019-05-05T06:14:24.699Z,7.60
2019-05-05T06:16:54.110Z,7.60
2019-05-05T06:19:24.593Z,7.60
2019-05-05T06:21:54.367Z,7.50
2019-05-05T06:24:24.081Z,7.70
2019-05-05T06:26:54.762Z,7.80
2019-05-05T06:29:24.334Z,7.70
2019-05-05T06:31:53.911Z,7.60
2019-05-05T06:34:24.415Z,7.60
2019-05-05T06:36:53.870Z,7.80
2019-05-05T06:39:24.198Z,8.00
2019-05-05T06:42:13.614Z,7.90
2019-05-05T06:44:50.783Z,7.90
2019-05-05T06:47:23.683Z,7.70
2019-05-05T06:49:54.205Z,7.70
2019-05-05T06:52:24.858Z,7.60
2019-05-05T06:54:54.333Z,7.50
2019-05-05T06:57:24.132Z,7.50
2019-05-05T06:59:54.437Z,7.50
2019-05-05T07:02:44.449Z,7.80
2019-05-05T07:05:14.352Z,8.20
2019-05-05T07:07:43.677Z,8.60
2019-05-05T07:10:14.098Z,8.90
2019-05-05T07:12:44.065Z,8.90
2019-05-05T07:15:14.529Z,9.00
2019-05-05T07:17:44.296Z,9.10
2019-05-05T07:20:13.771Z,9.40
2019-05-05T07:22:57.975Z,9.50
2019-05-05T07:25:14.028Z,9.20
2019-05-05T07:27:44.235Z,9.20
2019-05-05T07:30:14.020Z,9.00
2019-05-05T07:32:44.305Z,8.80
2019-05-05T07:35:29.271Z,8.80
2019-05-05T07:37:58.799Z,8.80
2019-05-05T07:40:28.014Z,8.70
2019-05-05T07:42:57.276Z,8.60
2019-05-05T07:45:26.494Z,8.60
2019-05-05T07:47:55.746Z,8.80
2019-05-05T07:50:32.012Z,9.00
2019-05-05T07:52:56.014Z,9.50
2019-05-05T07:55:25.204Z,11.20
2019-05-05T07:57:54.415Z,13.10
2019-05-05T08:00:24.120Z,14.50
2019-05-05T08:02:54.444Z,15.80
2019-05-05T08:05:24.636Z,15.80
2019-05-05T08:07:54.199Z,16.00
2019-05-05T08:10:24.181Z,16.10
2019-05-05T08:12:54.206Z,15.80
2019-05-05T08:15:25.138Z,16.80
2019-05-05T08:18:13.872Z,17.60
2019-05-05T08:20:46.242Z,17.50
2019-05-05T08:23:30.259Z,14.60
2019-05-05T08:26:23.587Z,14.40
2019-05-05T08:29:04.708Z,14.70
2019-05-05T08:31:59.201Z,14.30
2019-05-05T08:34:28.457Z,13.40
2019-05-05T08:36:59.801Z,14.90
2019-05-05T08:39:47.679Z,14.50
2019-05-05T08:42:16.997Z,13.60
2019-05-05T08:44:46.268Z,12.00
2019-05-05T08:47:15.464Z,10.70
2019-05-05T08:49:44.646Z,9.60
2019-05-05T08:52:14.486Z,8.80
2019-05-05T08:54:44.596Z,8.50
2019-05-05T08:57:14.791Z,8.50
2019-05-05T08:59:44.186Z,8.40
2019-05-05T09:02:14.976Z,8.50
2019-05-05T09:04:44.775Z,8.60
2019-05-05T09:07:14.125Z,8.50
2019-05-05T09:09:44.201Z,8.80
2019-05-05T09:12:14.041Z,8.80
2019-05-05T09:14:44.945Z,8.70
2019-05-05T09:17:14.272Z,8.70
2019-05-05T09:19:44.919Z,8.70
2019-05-05T09:22:14.319Z,8.90
2019-05-05T09:25:04.312Z,9.30
2019-05-05T09:27:46.615Z,9.80
2019-05-05T09:30:16.957Z,10.40
2019-05-05T09:32:46.268Z,10.70
2019-05-05T09:35:15.544Z,10.80
2019-05-05T09:37:44.786Z,10.90
2019-05-05T09:40:15.628Z,10.70
2019-05-05T09:42:44.870Z,10.60
2019-05-05T09:45:14.210Z,11.10
2019-05-05T09:47:44.993Z,12.60
2019-05-05T09:50:14.512Z,14.20
2019-05-05T09:52:44.367Z,15.20
2019-05-05T09:55:13.988Z,15.00
2019-05-05T09:57:43.872Z,15.20
2019-05-05T10:00:14.695Z,13.70
2019-05-05T10:02:45.130Z,12.00
2019-05-05T10:05:26.361Z,11.40
2019-05-05T10:07:55.558Z,10.80
2019-05-05T10:10:24.745Z,10.90
2019-05-05T10:12:55.022Z,11.70
2019-05-05T10:15:25.163Z,12.90
2019-05-05T10:17:54.414Z,13.70
2019-05-05T10:20:23.745Z,14.20
2019-05-05T10:22:55.829Z,15.10
2019-05-05T10:25:44.811Z,15.90
2019-05-05T10:28:14.209Z,16.40
2019-05-05T10:30:43.392Z,15.80
2019-05-05T10:33:14.223Z,14.60
2019-05-05T10:36:02.763Z,13.80
2019-05-05T10:38:34.096Z,13.50
2019-05-05T10:41:04.257Z,13.20
2019-05-05T10:43:34.360Z,13.00
2019-05-05T10:46:03.960Z,13.10
2019-05-05T10:48:34.013Z,13.50
2019-05-05T10:51:04.168Z,13.60
2019-05-05T10:53:33.823Z,13.70
2019-05-05T10:56:04.428Z,13.70
2019-05-05T10:58:33.701Z,12.90
2019-05-05T11:01:04.172Z,12.90
2019-05-05T11:03:34.425Z,13.20
2019-05-05T11:06:22.813Z,13.30
2019-05-05T11:08:53.886Z,13.40
2019-05-05T11:11:23.865Z,13.20
2019-05-05T11:13:54.289Z,13.00
2019-05-05T11:16:23.679Z,12.70
2019-05-05T11:18:54.032Z,12.20
2019-05-05T11:21:23.746Z,11.70
2019-05-05T11:23:53.924Z,11.40
2019-05-05T11:26:24.682Z,11.00
2019-05-05T11:28:54.092Z,11.00
2019-05-05T11:31:23.939Z,11.20
2019-05-05T11:34:14.012Z,11.20
2019-05-05T11:36:51.234Z,11.30
2019-05-05T11:39:20.451Z,11.90
2019-05-05T11:41:49.709Z,11.70
2019-05-05T11:44:18.892Z,11.40
2019-05-05T11:46:48.171Z,10.90
2019-05-05T11:49:17.375Z,10.90
2019-05-05T11:51:46.625Z,11.10
2019-05-05T11:54:15.949Z,11.60
2019-05-05T11:56:45.134Z,11.60
2019-05-05T11:59:14.581Z,11.80
2019-05-05T12:01:44.185Z,11.80
2019-05-05T12:04:14.782Z,12.00
2019-05-05T12:06:44.368Z,12.20
2019-05-05T12:09:38.882Z,12.10
2019-05-05T12:12:08.293Z,12.20
2019-05-05T12:14:37.563Z,12.20
2019-05-05T12:17:06.821Z,12.30
2019-05-05T12:19:36.041Z,12.40
2019-05-05T12:22:05.583Z,11.90
2019-05-05T12:24:38.394Z,12.00
2019-05-05T12:27:33.902Z,12.20
2019-05-05T12:30:11.612Z,12.50
2019-05-05T12:32:40.934Z,12.50
2019-05-05T12:35:29.210Z,12.70
2019-05-05T12:37:58.497Z,12.40
2019-05-05T12:40:27.675Z,12.20
2019-05-05T12:42:56.881Z,12.00
2019-05-05T12:45:28.240Z,12.00
2019-05-05T12:48:17.734Z,12.10
2019-05-05T12:50:47.176Z,12.20
2019-05-05T12:53:16.380Z,12.20
2019-05-05T12:55:45.621Z,12.40
2019-05-05T12:58:14.861Z,12.60
2019-05-05T13:00:48.438Z,12.60
2019-05-05T13:03:17.649Z,12.50
2019-05-05T13:05:46.828Z,12.40
2019-05-05T13:08:16.041Z,12.50
2019-05-05T13:10:45.350Z,12.50
2019-05-05T13:13:14.595Z,12.50
2019-05-05T13:15:44.276Z,12.70
2019-05-05T13:18:14.093Z,12.80
2019-05-05T13:20:54.604Z,13.10
2019-05-05T13:23:45.761Z,13.00
2019-05-05T13:26:23.774Z,12.90
2019-05-05T13:28:54.259Z,13.20
2019-05-05T13:31:23.708Z,13.60
2019-05-05T13:33:54.796Z,13.60
2019-05-05T13:36:24.258Z,13.80
2019-05-05T13:38:54.495Z,13.70
2019-05-05T13:41:23.893Z,13.60
2019-05-05T13:43:54.393Z,13.70
2019-05-05T13:46:26.118Z,14.00
2019-05-05T13:48:59.209Z,14.10
2019-05-05T13:51:28.507Z,13.90
2019-05-05T13:53:58.076Z,13.70
2019-05-05T13:56:27.504Z,13.60
2019-05-05T13:58:56.878Z,13.80
2019-05-05T14:01:26.193Z,13.90
2019-05-05T14:03:57.681Z,13.80
2019-05-05T14:06:26.457Z,13.70
2019-05-05T14:08:55.689Z,13.40
2019-05-05T14:11:25.004Z,13.20
2019-05-05T14:14:03.500Z,13.40
2019-05-05T14:16:34.052Z,13.40
2019-05-05T14:19:04.487Z,12.90
2019-05-05T14:21:34.052Z,13.00
2019-05-05T14:24:14.471Z,12.90
2019-05-05T14:26:43.677Z,12.80
2019-05-05T14:29:14.903Z,12.80
2019-05-05T14:31:44.455Z,12.60
2019-05-05T14:34:23.031Z,12.60
2019-05-05T14:37:11.219Z,12.80
2019-05-05T14:39:40.623Z,12.90
2019-05-05T14:42:09.791Z,12.80
2019-05-05T14:44:39.002Z,12.80
2019-05-05T14:47:08.198Z,13.00
2019-05-05T14:49:37.413Z,13.20
2019-05-05T14:52:06.671Z,13.50
2019-05-05T14:54:35.921Z,13.70
2019-05-05T14:57:05.141Z,13.80
2019-05-05T14:59:36.836Z,13.90
2019-05-05T15:02:05.230Z,13.50
2019-05-05T15:04:36.107Z,13.40
2019-05-05T15:07:17.699Z,13.30
2019-05-05T15:09:54.648Z,12.80
2019-05-05T15:12:41.682Z,12.70
2019-05-05T15:15:11.624Z,12.50
2019-05-05T15:17:40.908Z,12.30
2019-05-05T15:20:10.408Z,12.40
2019-05-05T15:22:39.656Z,12.30
2019-05-05T15:25:08.977Z,12.50
2019-05-05T15:27:38.218Z,12.70
2019-05-05T15:30:08.126Z,12.80
2019-05-05T15:32:37.294Z,13.10
2019-05-05T15:35:06.945Z,13.10
2019-05-05T15:37:36.166Z,13.00
2019-05-05T15:40:05.588Z,12.80
2019-05-05T15:42:54.438Z,12.50
2019-05-05T15:45:23.864Z,12.60
2019-05-05T15:47:54.050Z,12.50
2019-05-05T15:50:23.560Z,12.30
2019-05-05T15:52:54.357Z,12.10
2019-05-05T15:55:24.560Z,12.00
2019-05-05T15:57:53.992Z,11.70
2019-05-05T16:00:25.611Z,11.50
2019-05-05T16:02:54.984Z,11.50
2019-05-05T16:05:24.344Z,11.60
2019-05-05T16:07:54.259Z,11.60
2019-05-05T16:10:25.244Z,11.60
2019-05-05T16:12:54.668Z,11.80
2019-05-05T16:15:53.515Z,11.90
2019-05-05T16:19:05.756Z,11.90
2019-05-05T16:21:54.404Z,11.80
2019-05-05T16:24:26.025Z,11.80
2019-05-05T16:26:55.541Z,11.60
2019-05-05T16:29:24.979Z,11.60
2019-05-05T16:31:54.189Z,11.30
2019-05-05T16:34:23.616Z,11.10
2019-05-05T16:36:54.442Z,11.00
2019-05-05T16:39:25.698Z,10.90
2019-05-05T16:41:55.265Z,10.90
2019-05-05T16:44:24.523Z,11.00
2019-05-05T16:46:54.078Z,11.10
2019-05-05T16:49:23.320Z,11.10
2019-05-05T16:52:00.869Z,11.10
2019-05-05T16:54:49.349Z,10.90
2019-05-05T16:57:31.218Z,11.00
2019-05-05T16:59:49.576Z,11.10
2019-05-05T17:02:18.884Z,11.10
2019-05-05T17:04:48.176Z,11.20
2019-05-05T17:07:17.972Z,11.20
2019-05-05T17:09:47.222Z,11.20
2019-05-05T17:12:18.222Z,11.20
2019-05-05T17:15:06.613Z,11.30
2019-05-05T17:17:57.715Z,11.20
2019-05-05T17:20:28.658Z,11.10
2019-05-05T17:23:09.120Z,11.00
2019-05-05T17:25:38.428Z,11.00
2019-05-05T17:28:07.756Z,10.90
2019-05-05T17:30:37.142Z,11.00
2019-05-05T17:33:09.239Z,10.90
2019-05-05T17:35:38.836Z,10.80
2019-05-05T17:38:09.849Z,10.80
2019-05-05T17:41:10.963Z,10.90
2019-05-05T17:44:03.445Z,10.90
2019-05-05T17:46:57.703Z,10.70
2019-05-05T17:49:54.124Z,10.50
2019-05-05T17:52:29.084Z,10.50
2019-05-05T17:55:00.448Z,10.50
2019-05-05T17:57:29.641Z,10.40
2019-05-05T17:59:58.898Z,10.20
2019-05-05T18:02:28.156Z,10.10
2019-05-05T18:04:57.366Z,10.10
2019-05-05T18:07:41.595Z,10.00
2019-05-05T18:10:40.356Z,10.00
2019-05-05T18:13:31.969Z,9.80
2019-05-05T18:16:04.555Z,9.70
2019-05-05T18:18:34.157Z,9.50
2019-05-05T18:21:03.406Z,9.60
2019-05-05T18:23:34.178Z,9.50
2019-05-05T18:26:04.100Z,9.60
2019-05-05T18:28:34.085Z,9.60
2019-05-05T18:31:05.455Z,9.70
2019-05-05T18:33:34.585Z,9.70
2019-05-05T18:36:04.395Z,9.70
2019-05-05T18:38:53.877Z,9.60
2019-05-05T18:41:35.507Z,9.60
2019-05-05T18:44:10.852Z,9.50
2019-05-05T18:46:40.104Z,9.40
2019-05-05T18:49:09.355Z,9.30
2019-05-05T18:51:38.631Z,9.10
2019-05-05T18:54:07.910Z,8.90
2019-05-05T18:56:37.091Z,8.80
2019-05-05T18:59:06.829Z,8.70
2019-05-05T19:02:03.605Z,8.70
2019-05-05T19:05:25.901Z,8.80
2019-05-05T19:08:05.544Z,8.80
2019-05-05T19:10:34.907Z,8.90
2019-05-05T19:13:04.474Z,9.00
2019-05-05T19:15:34.947Z,9.00
2019-05-05T19:18:06.532Z,9.00
2019-05-05T19:20:50.598Z,9.00
2019-05-05T19:23:19.800Z,9.00
2019-05-05T19:25:49.396Z,8.90
2019-05-05T19:28:18.762Z,8.90
2019-05-05T19:30:48.028Z,8.80
2019-05-05T19:33:17.268Z,8.80
2019-05-05T19:35:47.388Z,8.70
2019-05-05T19:38:16.810Z,8.70
2019-05-05T19:40:46.169Z,8.70
2019-05-05T19:43:15.511Z,8.60
2019-05-05T19:45:45.094Z,8.50
2019-05-05T19:48:14.972Z,8.40
2019-05-05T19:50:50.908Z,8.30
2019-05-05T19:53:24.563Z,8.20
2019-05-05T19:55:55.749Z,8.20
2019-05-05T19:58:26.593Z,8.00
2019-05-05T20:01:00.223Z,8.00
2019-05-05T20:03:29.672Z,7.90
2019-05-05T20:05:59.163Z,7.90
2019-05-05T20:08:39.834Z,7.90
2019-05-05T20:10:59.424Z,7.80
2019-05-05T20:13:31.564Z,7.80
2019-05-05T20:16:20.161Z,7.80
2019-05-05T20:18:50.332Z,7.70
2019-05-05T20:21:20.013Z,7.70
2019-05-05T20:23:49.190Z,7.60
2019-05-05T20:26:18.601Z,7.60
2019-05-05T20:28:47.785Z,7.50
2019-05-05T20:31:17.138Z,7.50
2019-05-05T20:34:05.465Z,7.50
2019-05-05T20:36:35.157Z,7.40
2019-05-05T20:39:06.531Z,7.40
2019-05-05T20:41:35.822Z,7.40
2019-05-05T20:44:05.884Z,7.30
2019-05-05T20:46:35.280Z,7.30
2019-05-05T20:49:04.631Z,7.40
2019-05-05T20:51:34.022Z,7.40
2019-05-05T20:54:04.742Z,7.40
2019-05-05T20:56:34.415Z,7.40
2019-05-05T20:59:04.131Z,7.50
2019-05-05T21:01:34.116Z,7.50
2019-05-05T21:04:04.758Z,7.50
2019-05-05T21:06:34.322Z,7.50
2019-05-05T21:09:04.361Z,7.50
2019-05-05T21:11:33.794Z,7.50
2019-05-05T21:14:04.005Z,7.50
2019-05-05T21:16:34.268Z,7.50
2019-05-05T21:19:04.582Z,7.50
2019-05-05T21:21:35.868Z,7.40
2019-05-05T21:24:05.560Z,7.40
2019-05-05T21:27:06.210Z,7.30
2019-05-05T21:29:41.478Z,7.20
2019-05-05T21:32:06.525Z,7.10
2019-05-05T21:34:35.842Z,7.10
2019-05-05T21:37:05.137Z,7.00
2019-05-05T21:39:34.914Z,7.00
2019-05-05T21:42:04.736Z,7.00
2019-05-05T21:44:34.438Z,7.00
2019-05-05T21:47:03.685Z,6.90
2019-05-05T21:49:33.793Z,6.80
2019-05-05T21:52:14.217Z,6.80
2019-05-05T21:55:04.884Z,6.70
2019-05-05T21:57:51.656Z,6.70
2019-05-05T22:00:38.626Z,6.70
2019-05-05T22:03:09.612Z,6.60
2019-05-05T22:05:39.086Z,6.60
2019-05-05T22:08:08.394Z,6.50
2019-05-05T22:10:37.744Z,6.50
2019-05-05T22:13:07.164Z,6.40
2019-05-05T22:15:36.384Z,6.40
2019-05-05T22:18:05.584Z,6.30
2019-05-05T22:20:40.602Z,6.20
2019-05-05T22:23:09.846Z,6.20
2019-05-05T22:25:39.169Z,6.20
2019-05-05T22:28:08.600Z,6.10
2019-05-05T22:30:38.279Z,6.10
2019-05-05T22:33:07.496Z,6.10
2019-05-05T22:35:36.953Z,6.00
2019-05-05T22:38:06.633Z,6.00
2019-05-05T22:40:35.899Z,5.90
2019-05-05T22:43:05.215Z,5.90
2019-05-05T22:45:34.409Z,5.80
2019-05-05T22:48:04.653Z,5.80
2019-05-05T22:50:34.838Z,5.80
2019-05-05T22:53:04.045Z,5.80
2019-05-05T22:55:34.374Z,5.80
2019-05-05T22:58:04.140Z,5.70
2019-05-05T23:00:34.844Z,5.70
2019-05-05T23:03:14.603Z,5.60
2019-05-05T23:05:49.415Z,5.60
2019-05-05T23:08:18.800Z,5.60
2019-05-05T23:10:48.124Z,5.60
2019-05-05T23:13:17.643Z,5.60
2019-05-05T23:15:54.429Z,5.60
2019-05-05T23:18:26.158Z,5.50
2019-05-05T23:21:15.604Z,5.50
2019-05-05T23:24:23.651Z,5.40
2019-05-05T23:26:54.565Z,5.40
2019-05-05T23:29:26.487Z,5.40
2019-05-05T23:32:15.552Z,5.30
2019-05-05T23:34:44.838Z,5.30
2019-05-05T23:37:14.138Z,5.30
2019-05-05T23:39:43.440Z,5.30
2019-05-05T23:42:14.604Z,5.20
2019-05-05T23:44:43.662Z,5.30
2019-05-05T23:47:13.807Z,5.20
2019-05-05T23:49:43.996Z,5.20
2019-05-05T23:52:14.330Z,5.10
2019-05-05T23:54:44.713Z,5.10
2019-05-05T23:57:14.166Z,5.00
2019-05-05T23:59:44.118Z,5.00
